sensor_id;sensor_type;location;lat;lon;timestamp;pressure;altitude;pressure_sealevel;temperature;humidity
54329;BME280;40710;51.120;13.136;2024-02-28T00:02:18;99555.63;;;9.32;68.51
54329;BME280;40710;51.120;13.136;2024-02-28T00:04:43;99567.84;;;9.33;68.33
54329;BME280;40710;51.120;13.136;2024-02-28T00:07:07;99558.19;;;9.33;67.85
54329;BME280;40710;51.120;13.136;2024-02-28T00:09:32;99561.38;;;9.21;68.54
54329;BME280;40710;51.120;13.136;2024-02-28T00:11:56;99551.00;;;9.57;67.58
54329;BME280;40710;51.120;13.136;2024-02-28T00:14:21;99555.09;;;9.44;67.93
54329;BME280;40710;51.120;13.136;2024-02-28T00:16:46;99562.81;;;9.07;68.64
54329;BME280;40710;51.120;13.136;2024-02-28T00:19:12;99558.78;;;9.40;67.92
54329;BME280;40710;51.120;13.136;2024-02-28T00:21:37;99570.44;;;8.93;69.80
54329;BME280;40710;51.120;13.136;2024-02-28T00:24:02;99563.53;;;9.11;68.78
54329;BME280;40710;51.120;13.136;2024-02-28T00:26:27;99577.84;;;8.63;70.65
54329;BME280;40710;51.120;13.136;2024-02-28T00:28:51;99580.88;;;8.30;71.74
54329;BME280;40710;51.120;13.136;2024-02-28T00:31:16;99577.09;;;8.59;70.65
54329;BME280;40710;51.120;13.136;2024-02-28T00:33:40;99578.09;;;8.12;71.22
54329;BME280;40710;51.120;13.136;2024-02-28T00:36:05;99577.69;;;8.45;71.11
54329;BME280;40710;51.120;13.136;2024-02-28T00:38:29;99591.41;;;8.06;71.54
54329;BME280;40710;51.120;13.136;2024-02-28T00:40:54;99593.44;;;8.44;72.04
54329;BME280;40710;51.120;13.136;2024-02-28T00:43:18;99592.97;;;8.32;71.02
54329;BME280;40710;51.120;13.136;2024-02-28T00:45:43;99585.81;;;8.60;70.74
54329;BME280;40710;51.120;13.136;2024-02-28T00:48:08;99601.84;;;7.61;73.29
54329;BME280;40710;51.120;13.136;2024-02-28T00:50:33;99594.28;;;8.44;72.28
54329;BME280;40710;51.120;13.136;2024-02-28T00:52:57;99588.56;;;8.35;72.13
54329;BME280;40710;51.120;13.136;2024-02-28T00:55:22;99579.78;;;8.78;70.22
54329;BME280;40710;51.120;13.136;2024-02-28T00:57:46;99573.03;;;8.73;69.54
54329;BME280;40710;51.120;13.136;2024-02-28T01:00:11;99576.84;;;8.86;69.78
54329;BME280;40710;51.120;13.136;2024-02-28T01:02:36;99576.91;;;9.05;68.80
54329;BME280;40710;51.120;13.136;2024-02-28T01:05:00;99581.09;;;8.88;69.29
54329;BME280;40710;51.120;13.136;2024-02-28T01:07:25;99580.56;;;8.60;70.03
54329;BME280;40710;51.120;13.136;2024-02-28T01:09:50;99578.16;;;8.76;69.85
54329;BME280;40710;51.120;13.136;2024-02-28T01:12:14;99573.81;;;8.75;69.69
54329;BME280;40710;51.120;13.136;2024-02-28T01:14:39;99567.91;;;8.69;69.68
54329;BME280;40710;51.120;13.136;2024-02-28T01:17:03;99575.19;;;8.83;69.54
54329;BME280;40710;51.120;13.136;2024-02-28T01:19:28;99575.34;;;8.60;69.94
54329;BME280;40710;51.120;13.136;2024-02-28T01:21:52;99568.47;;;8.78;70.05
54329;BME280;40710;51.120;13.136;2024-02-28T01:24:17;99565.53;;;8.85;69.43
54329;BME280;40710;51.120;13.136;2024-02-28T01:26:42;99561.44;;;8.99;68.35
54329;BME280;40710;51.120;13.136;2024-02-28T01:29:06;99555.47;;;8.95;68.87
54329;BME280;40710;51.120;13.136;2024-02-28T01:31:31;99561.56;;;8.96;68.99
54329;BME280;40710;51.120;13.136;2024-02-28T01:33:55;99564.91;;;8.36;70.13
54329;BME280;40710;51.120;13.136;2024-02-28T01:36:20;99567.25;;;8.44;70.38
54329;BME280;40710;51.120;13.136;2024-02-28T01:38:44;99573.25;;;8.24;70.80
54329;BME280;40710;51.120;13.136;2024-02-28T01:41:09;99569.03;;;8.64;69.87
54329;BME280;40710;51.120;13.136;2024-02-28T01:43:34;99550.38;;;8.92;69.00
54329;BME280;40710;51.120;13.136;2024-02-28T01:46:02;99555.28;;;8.79;69.61
54329;BME280;40710;51.120;13.136;2024-02-28T01:48:28;99554.81;;;8.69;69.68
54329;BME280;40710;51.120;13.136;2024-02-28T01:50:52;99557.38;;;8.71;69.58
54329;BME280;40710;51.120;13.136;2024-02-28T01:53:17;99556.44;;;8.51;69.76
54329;BME280;40710;51.120;13.136;2024-02-28T01:55:42;99553.47;;;8.81;69.36
54329;BME280;40710;51.120;13.136;2024-02-28T01:58:06;99556.94;;;8.82;69.43
54329;BME280;40710;51.120;13.136;2024-02-28T02:00:34;99544.22;;;8.93;68.48
54329;BME280;40710;51.120;13.136;2024-02-28T02:03:00;99550.25;;;8.95;69.20
54329;BME280;40710;51.120;13.136;2024-02-28T02:05:28;99553.41;;;8.83;69.12
54329;BME280;40710;51.120;13.136;2024-02-28T02:07:53;99561.06;;;8.67;69.97
54329;BME280;40710;51.120;13.136;2024-02-28T02:10:19;99556.66;;;8.67;69.74
54329;BME280;40710;51.120;13.136;2024-02-28T02:12:44;99560.72;;;8.54;70.58
54329;BME280;40710;51.120;13.136;2024-02-28T02:15:08;99563.88;;;8.40;70.94
54329;BME280;40710;51.120;13.136;2024-02-28T02:17:33;99557.38;;;8.71;70.11
54329;BME280;40710;51.120;13.136;2024-02-28T02:19:58;99564.56;;;8.45;71.12
54329;BME280;40710;51.120;13.136;2024-02-28T02:22:23;99549.69;;;8.68;70.07
54329;BME280;40710;51.120;13.136;2024-02-28T02:24:48;99556.28;;;8.12;70.93
54329;BME280;40710;51.120;13.136;2024-02-28T02:27:12;99559.59;;;8.38;71.24
54329;BME280;40710;51.120;13.136;2024-02-28T02:29:37;99555.19;;;8.40;70.87
54329;BME280;40710;51.120;13.136;2024-02-28T02:32:01;99562.56;;;8.52;70.70
54329;BME280;40710;51.120;13.136;2024-02-28T02:34:26;99565.13;;;7.87;70.94
54329;BME280;40710;51.120;13.136;2024-02-28T02:36:50;99566.56;;;8.61;70.89
54329;BME280;40710;51.120;13.136;2024-02-28T02:39:15;99559.31;;;8.23;70.08
54329;BME280;40710;51.120;13.136;2024-02-28T02:41:39;99559.63;;;8.60;69.78
54329;BME280;40710;51.120;13.136;2024-02-28T02:44:04;99569.31;;;8.13;71.02
54329;BME280;40710;51.120;13.136;2024-02-28T02:46:29;99578.25;;;8.30;71.40
54329;BME280;40710;51.120;13.136;2024-02-28T02:48:54;99559.66;;;8.36;70.02
54329;BME280;40710;51.120;13.136;2024-02-28T02:51:19;99565.75;;;8.59;69.82
54329;BME280;40710;51.120;13.136;2024-02-28T02:53:44;99565.25;;;8.50;69.56
54329;BME280;40710;51.120;13.136;2024-02-28T02:56:08;99564.19;;;8.55;69.79
54329;BME280;40710;51.120;13.136;2024-02-28T02:58:33;99568.28;;;8.18;70.58
54329;BME280;40710;51.120;13.136;2024-02-28T03:00:57;99576.53;;;7.85;72.39
54329;BME280;40710;51.120;13.136;2024-02-28T03:03:22;99572.72;;;8.16;71.60
54329;BME280;40710;51.120;13.136;2024-02-28T03:05:46;99573.63;;;8.14;71.67
54329;BME280;40710;51.120;13.136;2024-02-28T03:08:11;99586.03;;;8.09;71.72
54329;BME280;40710;51.120;13.136;2024-02-28T03:10:35;99563.34;;;8.32;69.88
54329;BME280;40710;51.120;13.136;2024-02-28T03:13:00;99581.88;;;7.82;71.65
54329;BME280;40710;51.120;13.136;2024-02-28T03:15:26;99585.31;;;8.06;70.53
54329;BME280;40710;51.120;13.136;2024-02-28T03:17:50;99589.09;;;8.21;70.99
54329;BME280;40710;51.120;13.136;2024-02-28T03:20:15;99603.28;;;7.69;72.50
54329;BME280;40710;51.120;13.136;2024-02-28T03:22:40;99602.69;;;7.85;72.33
54329;BME280;40710;51.120;13.136;2024-02-28T03:25:05;99608.81;;;7.62;72.43
54329;BME280;40710;51.120;13.136;2024-02-28T03:27:30;99595.91;;;8.25;70.48
54329;BME280;40710;51.120;13.136;2024-02-28T03:29:54;99609.13;;;7.76;70.90
54329;BME280;40710;51.120;13.136;2024-02-28T03:32:19;99601.91;;;8.50;69.66
54329;BME280;40710;51.120;13.136;2024-02-28T03:34:43;99592.09;;;8.56;68.97
54329;BME280;40710;51.120;13.136;2024-02-28T03:37:08;99610.53;;;8.08;70.11
54329;BME280;40710;51.120;13.136;2024-02-28T03:39:32;99601.75;;;8.54;69.82
54329;BME280;40710;51.120;13.136;2024-02-28T03:41:57;99617.97;;;7.73;71.24
54329;BME280;40710;51.120;13.136;2024-02-28T03:44:21;99616.81;;;7.81;71.18
54329;BME280;40710;51.120;13.136;2024-02-28T03:46:46;99619.91;;;8.14;70.61
54329;BME280;40710;51.120;13.136;2024-02-28T03:49:10;99627.09;;;8.09;70.68
54329;BME280;40710;51.120;13.136;2024-02-28T03:51:41;99627.25;;;8.04;70.86
54329;BME280;40710;51.120;13.136;2024-02-28T03:54:06;99637.84;;;8.01;70.31
54329;BME280;40710;51.120;13.136;2024-02-28T03:56:30;99650.28;;;8.18;71.00
54329;BME280;40710;51.120;13.136;2024-02-28T03:58:55;99646.91;;;8.38;70.02
54329;BME280;40710;51.120;13.136;2024-02-28T04:01:20;99651.38;;;8.12;70.19
54329;BME280;40710;51.120;13.136;2024-02-28T04:03:44;99662.63;;;7.92;70.06
54329;BME280;40710;51.120;13.136;2024-02-28T04:06:10;99666.44;;;7.84;71.67
54329;BME280;40710;51.120;13.136;2024-02-28T04:08:34;99663.84;;;8.06;71.63
54329;BME280;40710;51.120;13.136;2024-02-28T04:10:59;99664.03;;;7.78;70.95
54329;BME280;40710;51.120;13.136;2024-02-28T04:13:24;99680.16;;;7.42;73.06
54329;BME280;40710;51.120;13.136;2024-02-28T04:15:48;99679.31;;;7.88;71.81
54329;BME280;40710;51.120;13.136;2024-02-28T04:18:13;99678.13;;;7.73;71.61
54329;BME280;40710;51.120;13.136;2024-02-28T04:20:37;99674.69;;;8.42;69.97
54329;BME280;40710;51.120;13.136;2024-02-28T04:23:02;99685.13;;;7.97;70.08
54329;BME280;40710;51.120;13.136;2024-02-28T04:25:27;99685.84;;;7.76;70.68
54329;BME280;40710;51.120;13.136;2024-02-28T04:27:52;99684.94;;;7.78;70.84
54329;BME280;40710;51.120;13.136;2024-02-28T04:30:16;99685.94;;;7.75;70.18
54329;BME280;40710;51.120;13.136;2024-02-28T04:32:41;99687.00;;;8.62;69.37
54329;BME280;40710;51.120;13.136;2024-02-28T04:35:06;99689.50;;;8.43;69.21
54329;BME280;40710;51.120;13.136;2024-02-28T04:37:31;99694.09;;;8.37;69.19
54329;BME280;40710;51.120;13.136;2024-02-28T04:39:55;99691.16;;;8.68;68.33
54329;BME280;40710;51.120;13.136;2024-02-28T04:42:20;99690.06;;;8.28;68.49
54329;BME280;40710;51.120;13.136;2024-02-28T04:44:44;99687.41;;;8.51;69.16
54329;BME280;40710;51.120;13.136;2024-02-28T04:47:09;99674.03;;;9.02;67.12
54329;BME280;40710;51.120;13.136;2024-02-28T04:49:36;99686.75;;;8.68;67.91
54329;BME280;40710;51.120;13.136;2024-02-28T04:52:01;99687.06;;;8.61;68.26
54329;BME280;40710;51.120;13.136;2024-02-28T04:54:25;99683.38;;;8.87;67.42
54329;BME280;40710;51.120;13.136;2024-02-28T04:56:50;99700.03;;;8.18;68.70
54329;BME280;40710;51.120;13.136;2024-02-28T04:59:15;99706.41;;;7.87;70.13
54329;BME280;40710;51.120;13.136;2024-02-28T05:01:40;99707.91;;;7.94;70.65
54329;BME280;40710;51.120;13.136;2024-02-28T05:04:07;99705.31;;;8.40;69.41
54329;BME280;40710;51.120;13.136;2024-02-28T05:06:31;99700.81;;;8.66;68.61
54329;BME280;40710;51.120;13.136;2024-02-28T05:08:56;99705.81;;;8.26;69.20
54329;BME280;40710;51.120;13.136;2024-02-28T05:11:21;99712.47;;;8.59;68.64
54329;BME280;40710;51.120;13.136;2024-02-28T05:13:45;99712.94;;;8.46;69.83
54329;BME280;40710;51.120;13.136;2024-02-28T05:16:13;99713.50;;;8.77;68.18
54329;BME280;40710;51.120;13.136;2024-02-28T05:18:38;99706.91;;;8.88;67.56
54329;BME280;40710;51.120;13.136;2024-02-28T05:21:02;99711.06;;;8.03;69.26
54329;BME280;40710;51.120;13.136;2024-02-28T05:23:27;99710.94;;;8.53;68.67
54329;BME280;40710;51.120;13.136;2024-02-28T05:25:52;99713.38;;;8.58;68.28
54329;BME280;40710;51.120;13.136;2024-02-28T05:28:16;99709.31;;;8.50;67.78
54329;BME280;40710;51.120;13.136;2024-02-28T05:30:41;99704.06;;;8.73;67.55
54329;BME280;40710;51.120;13.136;2024-02-28T05:33:05;99710.44;;;8.65;68.03
54329;BME280;40710;51.120;13.136;2024-02-28T05:35:30;99711.13;;;8.70;67.38
54329;BME280;40710;51.120;13.136;2024-02-28T05:37:55;99711.44;;;8.63;67.77
54329;BME280;40710;51.120;13.136;2024-02-28T05:40:20;99710.66;;;8.61;68.33
54329;BME280;40710;51.120;13.136;2024-02-28T05:42:45;99724.44;;;8.42;68.47
54329;BME280;40710;51.120;13.136;2024-02-28T05:45:09;99714.81;;;8.43;69.14
54329;BME280;40710;51.120;13.136;2024-02-28T05:47:34;99726.97;;;8.45;68.94
54329;BME280;40710;51.120;13.136;2024-02-28T05:49:59;99720.56;;;8.52;68.32
54329;BME280;40710;51.120;13.136;2024-02-28T05:52:24;99736.09;;;8.33;68.81
54329;BME280;40710;51.120;13.136;2024-02-28T05:54:49;99743.31;;;8.27;68.88
54329;BME280;40710;51.120;13.136;2024-02-28T05:57:14;99750.66;;;7.93;70.38
54329;BME280;40710;51.120;13.136;2024-02-28T05:59:38;99753.34;;;8.16;70.06
54329;BME280;40710;51.120;13.136;2024-02-28T06:02:03;99764.94;;;7.85;71.30
54329;BME280;40710;51.120;13.136;2024-02-28T06:04:28;99753.47;;;8.12;70.11
54329;BME280;40710;51.120;13.136;2024-02-28T06:06:52;99762.19;;;8.37;69.55
54329;BME280;40710;51.120;13.136;2024-02-28T06:09:17;99758.94;;;8.30;69.10
54329;BME280;40710;51.120;13.136;2024-02-28T06:11:41;99762.84;;;8.43;69.23
54329;BME280;40710;51.120;13.136;2024-02-28T06:14:06;99761.91;;;8.68;68.92
54329;BME280;40710;51.120;13.136;2024-02-28T06:16:30;99760.75;;;8.51;68.88
54329;BME280;40710;51.120;13.136;2024-02-28T06:18:55;99764.78;;;8.13;69.20
54329;BME280;40710;51.120;13.136;2024-02-28T06:21:22;99778.25;;;8.51;69.38
54329;BME280;40710;51.120;13.136;2024-02-28T06:23:47;99777.91;;;8.11;70.24
54329;BME280;40710;51.120;13.136;2024-02-28T06:26:11;99785.53;;;7.94;70.29
54329;BME280;40710;51.120;13.136;2024-02-28T06:28:40;99784.78;;;8.16;70.21
54329;BME280;40710;51.120;13.136;2024-02-28T06:31:14;99790.47;;;8.27;69.87
54329;BME280;40710;51.120;13.136;2024-02-28T06:33:39;99789.97;;;8.17;69.63
54329;BME280;40710;51.120;13.136;2024-02-28T06:36:04;99784.31;;;8.28;69.67
54329;BME280;40710;51.120;13.136;2024-02-28T06:38:28;99793.31;;;7.95;70.45
54329;BME280;40710;51.120;13.136;2024-02-28T06:40:53;99786.25;;;8.23;70.05
54329;BME280;40710;51.120;13.136;2024-02-28T06:43:18;99786.78;;;7.84;70.43
54329;BME280;40710;51.120;13.136;2024-02-28T06:45:43;99784.44;;;8.48;69.24
54329;BME280;40710;51.120;13.136;2024-02-28T06:48:08;99780.25;;;8.68;67.82
54329;BME280;40710;51.120;13.136;2024-02-28T06:50:32;99774.75;;;8.03;68.75
54329;BME280;40710;51.120;13.136;2024-02-28T06:52:57;99783.22;;;8.33;69.27
54329;BME280;40710;51.120;13.136;2024-02-28T06:55:21;99788.63;;;8.05;69.55
54329;BME280;40710;51.120;13.136;2024-02-28T06:57:46;99788.84;;;7.99;69.08
54329;BME280;40710;51.120;13.136;2024-02-28T07:00:11;99803.06;;;7.92;70.13
54329;BME280;40710;51.120;13.136;2024-02-28T07:02:37;99795.16;;;8.42;68.69
54329;BME280;40710;51.120;13.136;2024-02-28T07:05:02;99788.25;;;8.40;68.29
54329;BME280;40710;51.120;13.136;2024-02-28T07:07:28;99798.03;;;8.82;68.11
54329;BME280;40710;51.120;13.136;2024-02-28T07:09:53;99802.13;;;8.43;68.14
54329;BME280;40710;51.120;13.136;2024-02-28T07:12:17;99800.59;;;8.36;68.95
54329;BME280;40710;51.120;13.136;2024-02-28T07:14:42;99805.28;;;8.28;68.86
54329;BME280;40710;51.120;13.136;2024-02-28T07:17:06;99800.56;;;7.89;68.64
54329;BME280;40710;51.120;13.136;2024-02-28T07:19:31;99811.22;;;7.83;70.42
54329;BME280;40710;51.120;13.136;2024-02-28T07:21:55;99816.69;;;8.25;69.25
54329;BME280;40710;51.120;13.136;2024-02-28T07:24:20;99819.88;;;7.85;69.38
54329;BME280;40710;51.120;13.136;2024-02-28T07:26:45;99818.91;;;8.36;68.46
54329;BME280;40710;51.120;13.136;2024-02-28T07:29:10;99821.19;;;8.22;68.37
54329;BME280;40710;51.120;13.136;2024-02-28T07:31:35;99830.75;;;7.72;70.20
54329;BME280;40710;51.120;13.136;2024-02-28T07:33:59;99833.72;;;7.36;70.27
54329;BME280;40710;51.120;13.136;2024-02-28T07:36:24;99829.53;;;7.57;69.99
54329;BME280;40710;51.120;13.136;2024-02-28T07:38:48;99845.97;;;7.61;70.47
54329;BME280;40710;51.120;13.136;2024-02-28T07:41:13;99840.94;;;7.55;70.05
54329;BME280;40710;51.120;13.136;2024-02-28T07:43:37;99833.75;;;7.87;69.15
54329;BME280;40710;51.120;13.136;2024-02-28T07:46:07;99839.25;;;7.79;68.97
54329;BME280;40710;51.120;13.136;2024-02-28T07:48:32;99846.97;;;7.84;69.18
54329;BME280;40710;51.120;13.136;2024-02-28T07:50:56;99849.78;;;7.51;69.54
54329;BME280;40710;51.120;13.136;2024-02-28T07:53:21;99846.91;;;7.58;69.39
54329;BME280;40710;51.120;13.136;2024-02-28T07:55:45;99845.19;;;7.59;68.82
54329;BME280;40710;51.120;13.136;2024-02-28T07:58:10;99840.81;;;7.85;68.39
54329;BME280;40710;51.120;13.136;2024-02-28T08:00:35;99850.06;;;7.95;69.55
54329;BME280;40710;51.120;13.136;2024-02-28T08:02:59;99847.72;;;8.36;68.09
54329;BME280;40710;51.120;13.136;2024-02-28T08:05:24;99852.53;;;8.00;68.28
54329;BME280;40710;51.120;13.136;2024-02-28T08:07:49;99837.88;;;8.44;66.65
54329;BME280;40710;51.120;13.136;2024-02-28T08:10:13;99844.47;;;7.26;68.99
54329;BME280;40710;51.120;13.136;2024-02-28T08:12:38;99845.28;;;7.56;68.95
54329;BME280;40710;51.120;13.136;2024-02-28T08:15:03;99832.25;;;7.80;67.93
54329;BME280;40710;51.120;13.136;2024-02-28T08:17:28;99837.50;;;7.80;67.75
54329;BME280;40710;51.120;13.136;2024-02-28T08:19:53;99841.59;;;7.35;68.82
54329;BME280;40710;51.120;13.136;2024-02-28T08:22:18;99835.38;;;7.91;67.80
54329;BME280;40710;51.120;13.136;2024-02-28T08:24:43;99839.16;;;8.07;67.19
54329;BME280;40710;51.120;13.136;2024-02-28T08:27:08;99854.31;;;7.19;68.22
54329;BME280;40710;51.120;13.136;2024-02-28T08:29:32;99850.00;;;7.71;67.71
54329;BME280;40710;51.120;13.136;2024-02-28T08:31:59;99845.97;;;7.61;67.74
54329;BME280;40710;51.120;13.136;2024-02-28T08:34:24;99842.44;;;7.89;66.90
54329;BME280;40710;51.120;13.136;2024-02-28T08:36:49;99846.00;;;7.86;67.33
54329;BME280;40710;51.120;13.136;2024-02-28T08:39:13;99853.88;;;7.60;67.36
54329;BME280;40710;51.120;13.136;2024-02-28T08:41:38;99860.91;;;7.57;67.05
54329;BME280;40710;51.120;13.136;2024-02-28T08:44:02;99858.06;;;7.90;67.17
54329;BME280;40710;51.120;13.136;2024-02-28T08:46:27;99858.00;;;7.92;66.70
54329;BME280;40710;51.120;13.136;2024-02-28T08:48:52;99868.91;;;7.53;67.90
54329;BME280;40710;51.120;13.136;2024-02-28T08:51:16;99869.25;;;7.69;67.55
54329;BME280;40710;51.120;13.136;2024-02-28T08:53:41;99868.72;;;7.59;67.49
54329;BME280;40710;51.120;13.136;2024-02-28T08:56:05;99883.84;;;7.21;69.21
54329;BME280;40710;51.120;13.136;2024-02-28T08:58:30;99879.00;;;7.90;67.42
54329;BME280;40710;51.120;13.136;2024-02-28T09:00:55;99874.88;;;7.56;68.27
54329;BME280;40710;51.120;13.136;2024-02-28T09:03:19;99877.00;;;7.72;67.21
54329;BME280;40710;51.120;13.136;2024-02-28T09:05:45;99885.34;;;7.56;67.42
54329;BME280;40710;51.120;13.136;2024-02-28T09:08:10;99884.38;;;7.32;67.90
54329;BME280;40710;51.120;13.136;2024-02-28T09:10:35;99882.84;;;6.97;68.04
54329;BME280;40710;51.120;13.136;2024-02-28T09:12:59;99890.69;;;6.97;68.64
54329;BME280;40710;51.120;13.136;2024-02-28T09:15:24;99894.47;;;7.43;67.17
54329;BME280;40710;51.120;13.136;2024-02-28T09:17:49;99880.16;;;7.28;67.43
54329;BME280;40710;51.120;13.136;2024-02-28T09:20:14;99895.78;;;7.02;67.96
54329;BME280;40710;51.120;13.136;2024-02-28T09:22:39;99899.25;;;7.30;67.66
54329;BME280;40710;51.120;13.136;2024-02-28T09:25:04;99887.22;;;7.25;67.47
54329;BME280;40710;51.120;13.136;2024-02-28T09:27:30;99885.84;;;7.13;67.50
54329;BME280;40710;51.120;13.136;2024-02-28T09:29:55;99878.84;;;7.95;65.89
54329;BME280;40710;51.120;13.136;2024-02-28T09:32:20;99879.81;;;7.92;65.21
54329;BME280;40710;51.120;13.136;2024-02-28T09:34:44;99896.25;;;7.43;66.76
54329;BME280;40710;51.120;13.136;2024-02-28T09:37:09;99889.78;;;8.06;65.42
54329;BME280;40710;51.120;13.136;2024-02-28T09:39:33;99890.81;;;8.02;64.81
54329;BME280;40710;51.120;13.136;2024-02-28T09:41:58;99891.13;;;7.93;65.91
54329;BME280;40710;51.120;13.136;2024-02-28T09:44:23;99888.69;;;7.87;65.50
54329;BME280;40710;51.120;13.136;2024-02-28T09:46:51;99892.47;;;8.05;65.85
54329;BME280;40710;51.120;13.136;2024-02-28T09:49:16;99909.69;;;7.30;66.73
54329;BME280;40710;51.120;13.136;2024-02-28T09:51:41;99921.44;;;6.87;67.44
54329;BME280;40710;51.120;13.136;2024-02-28T09:54:06;99918.34;;;7.32;67.18
54329;BME280;40710;51.120;13.136;2024-02-28T09:56:31;99901.78;;;8.13;64.47
54329;BME280;40710;51.120;13.136;2024-02-28T09:58:57;99924.16;;;7.42;65.35
54329;BME280;40710;51.120;13.136;2024-02-28T10:01:22;99912.34;;;8.10;63.69
54329;BME280;40710;51.120;13.136;2024-02-28T10:03:48;99919.91;;;7.10;65.16
54329;BME280;40710;51.120;13.136;2024-02-28T10:06:15;99923.56;;;7.61;64.81
54329;BME280;40710;51.120;13.136;2024-02-28T10:08:39;99923.00;;;7.79;63.72
54329;BME280;40710;51.120;13.136;2024-02-28T10:11:05;99935.94;;;7.27;64.31
54329;BME280;40710;51.120;13.136;2024-02-28T10:13:30;99926.66;;;7.73;63.41
54329;BME280;40710;51.120;13.136;2024-02-28T10:15:54;99925.06;;;7.96;62.35
54329;BME280;40710;51.120;13.136;2024-02-28T10:18:20;99926.00;;;8.19;61.61
54329;BME280;40710;51.120;13.136;2024-02-28T10:20:44;99931.19;;;8.20;60.95
54329;BME280;40710;51.120;13.136;2024-02-28T10:23:09;99931.63;;;8.08;61.18
54329;BME280;40710;51.120;13.136;2024-02-28T10:25:42;99923.56;;;8.39;60.08
54329;BME280;40710;51.120;13.136;2024-02-28T10:28:07;99918.72;;;8.54;59.58
54329;BME280;40710;51.120;13.136;2024-02-28T10:30:32;99921.81;;;8.88;59.04
54329;BME280;40710;51.120;13.136;2024-02-28T10:32:56;99918.78;;;8.99;58.76
54329;BME280;40710;51.120;13.136;2024-02-28T10:35:21;99931.63;;;8.60;59.10
54329;BME280;40710;51.120;13.136;2024-02-28T10:37:49;99925.19;;;8.68;59.53
54329;BME280;40710;51.120;13.136;2024-02-28T10:40:15;99933.88;;;8.94;58.61
54329;BME280;40710;51.120;13.136;2024-02-28T10:42:42;99931.16;;;8.72;58.74
54329;BME280;40710;51.120;13.136;2024-02-28T10:45:07;99927.97;;;8.64;58.33
54329;BME280;40710;51.120;13.136;2024-02-28T10:47:35;99927.28;;;8.59;58.43
54329;BME280;40710;51.120;13.136;2024-02-28T10:50:00;99916.59;;;8.88;58.09
54329;BME280;40710;51.120;13.136;2024-02-28T10:52:25;99927.66;;;8.73;58.72
54329;BME280;40710;51.120;13.136;2024-02-28T10:54:54;99937.59;;;8.38;59.82
54329;BME280;40710;51.120;13.136;2024-02-28T10:57:24;99930.88;;;8.31;59.44
54329;BME280;40710;51.120;13.136;2024-02-28T10:59:50;99942.69;;;7.91;60.22
54329;BME280;40710;51.120;13.136;2024-02-28T11:02:15;99948.78;;;8.17;59.18
54329;BME280;40710;51.120;13.136;2024-02-28T11:04:40;99944.47;;;8.41;59.46
54329;BME280;40710;51.120;13.136;2024-02-28T11:07:05;99947.03;;;8.44;59.70
54329;BME280;40710;51.120;13.136;2024-02-28T11:09:30;99947.22;;;8.63;59.85
54329;BME280;40710;51.120;13.136;2024-02-28T11:11:55;99938.44;;;8.39;58.57
54329;BME280;40710;51.120;13.136;2024-02-28T11:14:21;99954.47;;;8.29;58.87
54329;BME280;40710;51.120;13.136;2024-02-28T11:16:46;99966.31;;;7.61;59.63
54329;BME280;40710;51.120;13.136;2024-02-28T11:19:22;99961.47;;;8.02;59.29
54329;BME280;40710;51.120;13.136;2024-02-28T11:21:55;99952.56;;;8.60;56.39
54329;BME280;40710;51.120;13.136;2024-02-28T11:24:28;99941.41;;;9.25;54.62
54329;BME280;40710;51.120;13.136;2024-02-28T11:26:53;99949.25;;;9.49;53.77
54329;BME280;40710;51.120;13.136;2024-02-28T11:29:25;99949.88;;;8.86;54.57
54329;BME280;40710;51.120;13.136;2024-02-28T11:31:51;99943.13;;;9.26;55.16
54329;BME280;40710;51.120;13.136;2024-02-28T11:34:16;99936.50;;;9.84;54.18
54329;BME280;40710;51.120;13.136;2024-02-28T11:36:40;99928.03;;;10.18;52.79
54329;BME280;40710;51.120;13.136;2024-02-28T11:39:05;99942.00;;;9.56;53.24
54329;BME280;40710;51.120;13.136;2024-02-28T11:41:31;99948.50;;;9.68;52.60
54329;BME280;40710;51.120;13.136;2024-02-28T11:43:56;99940.91;;;10.04;52.57
54329;BME280;40710;51.120;13.136;2024-02-28T11:46:20;99946.63;;;10.14;53.77
54329;BME280;40710;51.120;13.136;2024-02-28T11:48:45;99938.53;;;10.40;52.69
54329;BME280;40710;51.120;13.136;2024-02-28T11:51:09;99944.75;;;9.75;53.65
54329;BME280;40710;51.120;13.136;2024-02-28T11:53:34;99957.25;;;9.46;54.01
54329;BME280;40710;51.120;13.136;2024-02-28T11:55:59;99921.53;;;13.01;47.14
54329;BME280;40710;51.120;13.136;2024-02-28T11:58:23;99941.63;;;11.47;49.28
54329;BME280;40710;51.120;13.136;2024-02-28T12:00:51;99947.19;;;10.63;50.76
54329;BME280;40710;51.120;13.136;2024-02-28T12:03:25;99920.59;;;14.27;44.37
54329;BME280;40710;51.120;13.136;2024-02-28T12:05:52;99939.84;;;12.20;46.11
54329;BME280;40710;51.120;13.136;2024-02-28T12:08:18;99939.94;;;13.83;43.83
54329;BME280;40710;51.120;13.136;2024-02-28T12:10:43;99907.28;;;15.98;39.95
54329;BME280;40710;51.120;13.136;2024-02-28T12:13:08;99953.91;;;12.02;46.70
54329;BME280;40710;51.120;13.136;2024-02-28T12:15:33;99968.47;;;10.77;49.15
54329;BME280;40710;51.120;13.136;2024-02-28T12:17:58;99952.94;;;11.11;49.26
54329;BME280;40710;51.120;13.136;2024-02-28T12:20:22;99939.91;;;11.82;48.07
54329;BME280;40710;51.120;13.136;2024-02-28T12:22:47;99933.78;;;12.69;46.31
54329;BME280;40710;51.120;13.136;2024-02-28T12:25:11;99930.00;;;13.56;43.81
54329;BME280;40710;51.120;13.136;2024-02-28T12:27:36;99919.00;;;13.32;43.73
54329;BME280;40710;51.120;13.136;2024-02-28T12:30:00;99920.19;;;14.49;42.37
54329;BME280;40710;51.120;13.136;2024-02-28T12:32:25;99925.75;;;12.55;43.98
54329;BME280;40710;51.120;13.136;2024-02-28T12:34:50;99928.03;;;12.27;44.75
54329;BME280;40710;51.120;13.136;2024-02-28T12:37:14;99944.78;;;11.36;47.08
54329;BME280;40710;51.120;13.136;2024-02-28T12:39:39;99944.00;;;11.70;47.37
54329;BME280;40710;51.120;13.136;2024-02-28T12:42:04;99926.66;;;12.71;46.32
54329;BME280;40710;51.120;13.136;2024-02-28T12:44:28;99907.88;;;14.33;43.39
54329;BME280;40710;51.120;13.136;2024-02-28T12:46:53;99903.31;;;13.76;42.89
54329;BME280;40710;51.120;13.136;2024-02-28T12:49:17;99903.53;;;13.88;42.32